createdAt,value
2018-05-08T00:01:50.658Z,80.29
2018-05-08T00:04:16.544Z,80.43
2018-05-08T00:06:42.462Z,80.66
2018-05-08T00:09:08.403Z,80.51
2018-05-08T00:11:34.299Z,80.84
2018-05-08T00:14:00.248Z,80.89
2018-05-08T00:16:26.146Z,80.71
2018-05-08T00:18:52.019Z,80.81
2018-05-08T00:21:17.923Z,80.96
2018-05-08T00:23:43.809Z,80.92
2018-05-08T00:26:09.695Z,81.09
2018-05-08T00:28:35.633Z,81.21
2018-05-08T00:31:01.540Z,81.28
2018-05-08T00:33:27.466Z,81.20
2018-05-08T00:35:53.393Z,81.61
2018-05-08T00:38:19.268Z,81.25
2018-05-08T00:40:45.150Z,81.57
2018-05-08T00:43:11.123Z,81.80
2018-05-08T00:45:36.993Z,81.84
2018-05-08T00:48:02.951Z,81.57
2018-05-08T00:50:28.863Z,81.57
2018-05-08T00:52:54.738Z,81.81
2018-05-08T00:55:20.604Z,81.75
2018-05-08T00:57:46.551Z,81.88
2018-05-08T01:00:12.490Z,81.94
2018-05-08T01:02:38.371Z,81.87
2018-05-08T01:05:04.283Z,82.09
2018-05-08T01:07:30.153Z,82.09
2018-05-08T01:09:56.024Z,82.01
2018-05-08T01:12:21.993Z,82.33
2018-05-08T01:14:47.904Z,82.33
2018-05-08T01:17:13.765Z,82.46
2018-05-08T01:19:39.716Z,82.63
2018-05-08T01:22:05.605Z,82.93
2018-05-08T01:24:31.482Z,82.99
2018-05-08T01:26:57.400Z,83.20
2018-05-08T01:29:23.291Z,82.97
2018-05-08T01:31:49.171Z,82.79
2018-05-08T01:34:15.072Z,82.87
2018-05-08T01:36:40.947Z,82.76
2018-05-08T01:39:06.829Z,82.85
2018-05-08T01:41:32.781Z,83.17
2018-05-08T01:44:01.916Z,83.14
2018-05-08T01:46:27.799Z,83.31
2018-05-08T01:48:54.598Z,83.20
2018-05-08T01:51:20.490Z,83.08
2018-05-08T01:53:46.369Z,83.04
2018-05-08T01:56:12.306Z,82.94
2018-05-08T01:58:38.196Z,83.24
2018-05-08T02:01:04.160Z,83.17
2018-05-08T02:03:30.085Z,83.31
2018-05-08T02:05:56.004Z,83.48
2018-05-08T02:08:21.883Z,83.56
2018-05-08T02:10:47.819Z,83.29
2018-05-08T02:13:13.691Z,83.66
2018-05-08T02:15:39.546Z,83.55
2018-05-08T02:18:05.472Z,83.66
2018-05-08T02:20:31.377Z,83.54
2018-05-08T02:22:57.270Z,83.48
2018-05-08T02:25:23.229Z,83.77
2018-05-08T02:27:49.115Z,83.73
2018-05-08T02:30:14.992Z,84.04
2018-05-08T02:32:40.907Z,83.94
2018-05-08T02:35:06.772Z,84.08
2018-05-08T02:37:32.768Z,84.26
2018-05-08T02:39:58.636Z,84.34
2018-05-08T02:42:24.521Z,84.21
2018-05-08T02:44:50.389Z,84.11
2018-05-08T02:47:16.328Z,84.15
2018-05-08T02:49:42.294Z,84.40
2018-05-08T02:52:08.188Z,84.61
2018-05-08T02:54:34.127Z,84.63
2018-05-08T02:57:00.008Z,84.58
2018-05-08T02:59:25.904Z,84.58
2018-05-08T03:01:51.811Z,84.13
2018-05-08T03:04:17.681Z,84.56
2018-05-08T03:06:43.565Z,84.58
2018-05-08T03:09:09.869Z,84.63
2018-05-08T03:11:37.256Z,84.76
2018-05-08T03:14:03.147Z,84.53
2018-05-08T03:16:48.799Z,84.51
2018-05-08T03:19:14.743Z,84.49
2018-05-08T03:21:40.623Z,84.59
2018-05-08T03:24:06.655Z,84.28
2018-05-08T03:26:32.625Z,84.43
2018-05-08T03:28:58.478Z,84.18
2018-05-08T03:31:24.408Z,84.35
2018-05-08T03:33:50.334Z,84.39
2018-05-08T03:36:16.278Z,84.27
2018-05-08T03:38:42.213Z,84.66
2018-05-08T03:41:08.099Z,84.84
2018-05-08T03:43:34.014Z,84.93
2018-05-08T03:45:59.965Z,85.14
2018-05-08T03:48:25.846Z,84.92
2018-05-08T03:50:51.735Z,84.96
2018-05-08T03:53:17.690Z,85.04
2018-05-08T03:55:43.593Z,84.86
2018-05-08T03:58:09.606Z,85.18
2018-05-08T04:00:47.869Z,85.16
2018-05-08T04:03:26.220Z,85.24
2018-05-08T04:06:04.400Z,85.06
2018-05-08T04:08:31.261Z,85.07
2018-05-08T04:10:57.140Z,85.23
2018-05-08T04:13:23.067Z,85.14
2018-05-08T04:15:48.953Z,85.26
2018-05-08T04:18:14.833Z,85.55
2018-05-08T04:20:40.872Z,85.41
2018-05-08T04:23:06.844Z,85.53
2018-05-08T04:25:32.823Z,85.54
2018-05-08T04:27:58.731Z,85.55
2018-05-08T04:30:24.624Z,85.56
2018-05-08T04:32:50.536Z,85.58
2018-05-08T04:35:16.515Z,85.54
2018-05-08T04:37:57.079Z,85.21
2018-05-08T04:40:23.097Z,85.38
2018-05-08T04:42:49.008Z,85.50
2018-05-08T04:45:14.940Z,85.52
2018-05-08T04:47:40.854Z,85.52
2018-05-08T04:50:06.765Z,84.56
2018-05-08T04:52:32.658Z,84.66
2018-05-08T04:54:58.596Z,84.42
2018-05-08T04:57:24.494Z,84.16
2018-05-08T04:59:50.384Z,83.37
2018-05-08T05:02:16.305Z,83.04
2018-05-08T05:04:42.190Z,82.66
2018-05-08T05:07:08.096Z,82.70
2018-05-08T05:09:34.029Z,82.55
2018-05-08T05:11:59.919Z,81.62
2018-05-08T05:14:25.834Z,81.58
2018-05-08T05:16:51.747Z,80.99
2018-05-08T05:19:17.636Z,80.72
2018-05-08T05:21:44.624Z,80.35
2018-05-08T05:24:10.573Z,79.77
2018-05-08T05:26:36.822Z,78.43
2018-05-08T05:29:02.712Z,78.45
2018-05-08T05:31:28.666Z,77.86
2018-05-08T05:33:54.545Z,76.87
2018-05-08T05:36:20.420Z,77.30
2018-05-08T05:38:46.394Z,75.27
2018-05-08T05:41:12.287Z,74.44
2018-05-08T05:43:38.261Z,73.28
2018-05-08T05:46:04.166Z,71.94
2018-05-08T05:48:31.244Z,71.76
2018-05-08T05:50:57.171Z,71.18
2018-05-08T05:53:23.578Z,71.83
2018-05-08T05:55:49.512Z,69.77
2018-05-08T05:58:15.501Z,70.83
2018-05-08T06:00:41.520Z,70.35
2018-05-08T06:03:07.405Z,69.23
2018-05-08T06:05:33.292Z,68.94
2018-05-08T06:07:59.203Z,69.42
2018-05-08T06:10:25.147Z,69.46
2018-05-08T06:12:51.068Z,69.37
2018-05-08T06:15:17.204Z,68.24
2018-05-08T06:17:43.083Z,68.22
2018-05-08T06:20:08.947Z,66.88
2018-05-08T06:22:34.867Z,66.70
2018-05-08T06:25:00.827Z,65.53
2018-05-08T06:27:26.765Z,66.70
2018-05-08T06:29:52.863Z,66.41
2018-05-08T06:32:18.752Z,65.52
2018-05-08T06:34:44.625Z,66.64
2018-05-08T06:37:11.595Z,65.55
2018-05-08T06:39:37.604Z,65.14
2018-05-08T06:42:03.456Z,64.16
2018-05-08T06:44:29.377Z,63.69
2018-05-08T06:46:55.278Z,62.92
2018-05-08T06:49:21.334Z,63.77
2018-05-08T06:51:47.247Z,61.75
2018-05-08T06:54:13.148Z,63.19
2018-05-08T06:56:39.015Z,61.13
2018-05-08T06:59:04.927Z,62.37
2018-05-08T07:01:30.796Z,61.77
2018-05-08T07:03:56.678Z,60.85
2018-05-08T07:06:22.707Z,61.33
2018-05-08T07:08:48.654Z,60.72
2018-05-08T07:11:14.592Z,61.39
2018-05-08T07:13:40.528Z,61.02
2018-05-08T07:16:06.519Z,59.03
2018-05-08T07:18:32.353Z,58.97
2018-05-08T07:20:58.284Z,59.70
2018-05-08T07:23:24.172Z,58.71
2018-05-08T07:25:50.034Z,57.30
2018-05-08T07:28:16.051Z,57.25
2018-05-08T07:30:42.008Z,56.83
2018-05-08T07:33:08.836Z,56.02
2018-05-08T07:35:34.735Z,56.55
2018-05-08T07:38:00.707Z,54.04
2018-05-08T07:40:26.629Z,56.03
2018-05-08T07:42:53.594Z,57.13
2018-05-08T07:45:19.747Z,55.01
2018-05-08T07:47:45.587Z,53.75
2018-05-08T07:50:11.580Z,54.46
2018-05-08T07:52:37.451Z,54.90
2018-05-08T07:55:03.408Z,54.11
2018-05-08T07:57:30.092Z,52.48
2018-05-08T07:59:56.068Z,50.67
2018-05-08T08:02:23.749Z,49.88
2018-05-08T08:04:49.750Z,47.79
2018-05-08T08:07:15.634Z,49.70
2018-05-08T08:09:41.576Z,49.53
2018-05-08T08:12:07.903Z,48.99
2018-05-08T08:14:33.781Z,48.72
2018-05-08T08:16:59.886Z,44.14
2018-05-08T08:19:25.854Z,48.17
2018-05-08T08:21:51.778Z,44.87
2018-05-08T08:24:17.682Z,43.42
2018-05-08T08:26:43.616Z,47.13
2018-05-08T08:29:09.550Z,45.19
2018-05-08T08:31:35.418Z,43.76
2018-05-08T08:34:01.371Z,43.20
2018-05-08T08:36:27.309Z,43.88
2018-05-08T08:38:53.176Z,39.47
2018-05-08T08:41:19.107Z,40.28
2018-05-08T08:43:45.268Z,39.93
2018-05-08T08:46:11.288Z,39.24
2018-05-08T08:48:37.220Z,39.83
2018-05-08T08:51:04.187Z,37.90
2018-05-08T08:53:30.382Z,39.24
2018-05-08T08:55:56.396Z,38.88
2018-05-08T08:58:22.228Z,39.26
2018-05-08T09:00:48.091Z,37.93
2018-05-08T09:03:14.103Z,38.51
2018-05-08T09:05:40.908Z,34.84
2018-05-08T09:08:06.852Z,38.23
2018-05-08T09:10:32.780Z,38.04
2018-05-08T09:12:58.713Z,35.58
2018-05-08T09:15:24.651Z,38.11
2018-05-08T09:17:50.568Z,35.97
2018-05-08T09:20:16.443Z,37.51
2018-05-08T09:22:47.571Z,38.76
2018-05-08T09:25:13.615Z,34.62
2018-05-08T09:27:39.627Z,33.88
2018-05-08T09:30:05.505Z,31.88
2018-05-08T09:32:31.407Z,33.86
2018-05-08T09:34:57.277Z,34.19
2018-05-08T09:37:23.153Z,34.31
2018-05-08T09:39:49.116Z,33.71
2018-05-08T09:42:15.118Z,33.07
2018-05-08T09:44:41.009Z,33.71
2018-05-08T09:47:06.944Z,36.95
2018-05-08T09:49:32.834Z,32.76
2018-05-08T09:51:58.715Z,32.09
2018-05-08T09:54:24.654Z,34.33
2018-05-08T09:56:50.676Z,33.72
2018-05-08T09:59:16.615Z,31.26
2018-05-08T10:01:42.620Z,30.54
2018-05-08T10:04:08.737Z,30.75
2018-05-08T10:06:34.750Z,30.90
2018-05-08T10:09:00.760Z,30.24
2018-05-08T10:11:26.665Z,29.61
2018-05-08T10:13:52.534Z,30.34
2018-05-08T10:16:18.482Z,29.28
2018-05-08T10:18:44.526Z,27.21
2018-05-08T10:21:10.415Z,27.73
2018-05-08T10:23:36.435Z,29.86
2018-05-08T10:26:02.313Z,28.61
2018-05-08T10:28:28.191Z,27.95
2018-05-08T10:30:54.247Z,28.31
2018-05-08T10:33:20.207Z,29.14
2018-05-08T10:35:46.109Z,26.67
2018-05-08T10:38:12.088Z,29.77
2018-05-08T10:40:38.013Z,27.96
2018-05-08T10:43:04.773Z,28.30
2018-05-08T10:45:30.706Z,30.40
2018-05-08T10:47:56.611Z,29.77
2018-05-08T10:50:22.480Z,29.42
2018-05-08T10:52:48.714Z,26.88
2018-05-08T10:55:14.679Z,27.81
2018-05-08T10:57:40.662Z,28.07
2018-05-08T11:00:06.643Z,27.56
2018-05-08T11:02:32.560Z,28.22
2018-05-08T11:04:58.494Z,25.83
2018-05-08T11:07:24.450Z,27.09
2018-05-08T11:09:50.350Z,30.51
2018-05-08T11:12:16.250Z,24.74
2018-05-08T11:14:42.265Z,25.73
2018-05-08T11:17:08.138Z,25.65
2018-05-08T11:19:34.119Z,25.69
2018-05-08T11:22:00.067Z,25.25
2018-05-08T11:24:26.004Z,27.82
2018-05-08T11:26:51.956Z,22.83
2018-05-08T11:29:17.824Z,24.07
2018-05-08T11:31:43.880Z,25.26
2018-05-08T11:34:09.960Z,27.00
2018-05-08T11:36:35.884Z,23.82
2018-05-08T11:39:01.783Z,25.33
2018-05-08T11:41:27.695Z,26.27
2018-05-08T11:43:53.639Z,27.44
2018-05-08T11:46:19.532Z,24.91
2018-05-08T11:48:45.442Z,24.94
2018-05-08T11:51:11.423Z,25.81
2018-05-08T11:53:37.318Z,26.96
2018-05-08T11:56:03.228Z,24.59
2018-05-08T11:58:29.147Z,26.35
2018-05-08T12:00:55.100Z,26.29
2018-05-08T12:03:21.005Z,27.36
2018-05-08T12:05:46.938Z,28.30
2018-05-08T12:08:13.062Z,26.31
2018-05-08T12:10:38.984Z,28.97
2018-05-08T12:13:04.929Z,28.36
2018-05-08T12:15:30.827Z,29.75
2018-05-08T12:17:56.700Z,29.77
2018-05-08T12:20:22.664Z,30.09
2018-05-08T12:22:48.601Z,31.00
2018-05-08T12:25:14.482Z,31.93
2018-05-08T12:27:40.409Z,31.23
2018-05-08T12:30:06.299Z,30.70
2018-05-08T12:32:32.250Z,30.87
2018-05-08T12:34:58.165Z,32.16
2018-05-08T12:37:24.071Z,31.42
2018-05-08T12:39:49.952Z,31.88
2018-05-08T12:42:15.910Z,31.78
2018-05-08T12:44:41.805Z,31.18
2018-05-08T12:47:07.695Z,33.15
2018-05-08T12:49:33.671Z,32.63
2018-05-08T12:52:00.591Z,30.94
2018-05-08T12:54:26.482Z,30.11
2018-05-08T12:56:52.412Z,31.18
2018-05-08T12:59:18.331Z,29.44
2018-05-08T13:01:44.292Z,31.95
2018-05-08T13:04:10.238Z,30.50
2018-05-08T13:06:36.123Z,30.05
2018-05-08T13:09:02.020Z,31.65
2018-05-08T13:11:27.935Z,28.68
2018-05-08T13:13:53.819Z,29.64
2018-05-08T13:16:19.716Z,30.45
2018-05-08T13:18:45.651Z,28.49
2018-05-08T13:21:11.562Z,30.73
2018-05-08T13:23:37.432Z,28.29
2018-05-08T13:26:03.480Z,28.68
2018-05-08T13:28:29.368Z,29.83
2018-05-08T13:30:55.270Z,30.42
2018-05-08T13:33:21.322Z,29.35
2018-05-08T13:35:47.215Z,28.76
2018-05-08T13:38:13.223Z,27.64
2018-05-08T13:40:39.135Z,29.06
2018-05-08T13:43:05.023Z,27.67
2018-05-08T13:45:30.973Z,29.00
2018-05-08T13:47:56.868Z,28.72
2018-05-08T13:50:22.737Z,28.35
2018-05-08T13:52:48.655Z,28.69
2018-05-08T13:55:14.718Z,28.68
2018-05-08T13:57:40.601Z,30.17
2018-05-08T14:00:06.594Z,27.49
2018-05-08T14:02:32.521Z,26.96
2018-05-08T14:04:58.400Z,28.31
2018-05-08T14:07:24.279Z,29.64
2018-05-08T14:09:50.200Z,29.26
2018-05-08T14:12:16.090Z,27.95
2018-05-08T14:14:41.977Z,29.03
2018-05-08T14:17:07.910Z,28.79
2018-05-08T14:19:33.779Z,29.83
2018-05-08T14:21:59.667Z,28.66
2018-05-08T14:24:25.623Z,29.55
2018-05-08T14:26:51.543Z,27.20
2018-05-08T14:29:17.482Z,28.70
2018-05-08T14:31:43.483Z,27.67
2018-05-08T14:34:09.429Z,28.39
2018-05-08T14:36:35.300Z,28.99
2018-05-08T14:39:01.294Z,29.29
2018-05-08T14:41:27.178Z,30.19
2018-05-08T14:43:53.100Z,29.90
2018-05-08T14:46:19.035Z,30.06
2018-05-08T14:48:44.911Z,30.94
2018-05-08T14:51:10.788Z,31.24
2018-05-08T14:53:36.725Z,31.42
2018-05-08T14:56:02.606Z,29.81
2018-05-08T14:58:28.491Z,30.97
2018-05-08T15:00:54.444Z,30.05
2018-05-08T15:03:20.383Z,30.31
2018-05-08T15:05:46.368Z,30.49
2018-05-08T15:08:12.303Z,30.64
2018-05-08T15:10:38.268Z,33.93
2018-05-08T15:13:04.289Z,31.06
2018-05-08T15:15:30.147Z,30.58
2018-05-08T15:17:56.035Z,31.88
2018-05-08T15:20:21.960Z,31.87
2018-05-08T15:22:47.944Z,32.05
2018-05-08T15:25:13.861Z,31.22
2018-05-08T15:27:39.724Z,30.26
2018-05-08T15:30:05.683Z,31.08
2018-05-08T15:32:31.580Z,31.06
2018-05-08T15:34:57.581Z,31.37
2018-05-08T15:37:23.557Z,31.01
2018-05-08T15:39:49.452Z,31.47
2018-05-08T15:42:15.332Z,31.85
2018-05-08T15:44:41.273Z,31.36
2018-05-08T15:47:07.139Z,31.60
2018-05-08T15:49:33.060Z,31.16
2018-05-08T15:51:58.991Z,32.08
2018-05-08T15:54:24.953Z,30.96
2018-05-08T15:56:50.848Z,32.15
2018-05-08T15:59:16.839Z,30.36
2018-05-08T16:01:42.766Z,31.71
2018-05-08T16:04:08.640Z,31.98
2018-05-08T16:06:34.565Z,32.61
2018-05-08T16:09:00.437Z,31.23
2018-05-08T16:11:26.381Z,30.17
2018-05-08T16:13:52.274Z,30.87
2018-05-08T16:16:18.195Z,31.93
2018-05-08T16:18:44.062Z,31.32
2018-05-08T16:21:10.029Z,31.08
2018-05-08T16:23:35.899Z,34.73
2018-05-08T16:26:01.789Z,31.29
2018-05-08T16:28:27.708Z,32.10
2018-05-08T16:30:53.590Z,31.69
2018-05-08T16:33:19.517Z,31.65
2018-05-08T16:35:45.487Z,32.08
2018-05-08T16:38:11.371Z,32.85
2018-05-08T16:40:37.465Z,32.53
2018-05-08T16:43:03.400Z,32.37
2018-05-08T16:45:29.281Z,33.44
2018-05-08T16:47:55.182Z,32.79
2018-05-08T16:50:21.112Z,33.56
2018-05-08T16:52:46.991Z,34.35
2018-05-08T16:55:12.896Z,34.82
2018-05-08T16:57:38.847Z,33.83
2018-05-08T17:00:04.757Z,33.19
2018-05-08T17:02:30.638Z,33.48
2018-05-08T17:04:56.573Z,33.70
2018-05-08T17:07:22.467Z,34.33
2018-05-08T17:09:48.406Z,34.24
2018-05-08T17:12:14.320Z,35.23
2018-05-08T17:14:40.208Z,35.59
2018-05-08T17:17:06.087Z,34.41
2018-05-08T17:19:32.057Z,35.88
2018-05-08T17:21:57.920Z,37.33
2018-05-08T17:24:23.878Z,35.53
2018-05-08T17:26:49.864Z,35.68
2018-05-08T17:29:15.760Z,37.04
2018-05-08T17:31:41.634Z,37.45
2018-05-08T17:34:07.604Z,35.82
2018-05-08T17:36:33.595Z,37.41
2018-05-08T17:38:59.478Z,37.49
2018-05-08T17:41:25.426Z,36.22
2018-05-08T17:43:51.322Z,39.12
2018-05-08T17:46:17.209Z,38.16
2018-05-08T17:48:43.203Z,41.47
2018-05-08T17:51:09.100Z,39.65
2018-05-08T17:53:34.973Z,41.87
2018-05-08T17:56:00.917Z,42.03
2018-05-08T17:58:26.872Z,42.78
2018-05-08T18:00:52.896Z,41.70
2018-05-08T18:03:18.909Z,43.27
2018-05-08T18:05:44.774Z,42.75
2018-05-08T18:08:10.644Z,45.51
2018-05-08T18:10:36.584Z,46.96
2018-05-08T18:13:02.567Z,47.95
2018-05-08T18:15:28.455Z,46.15
2018-05-08T18:17:54.414Z,44.75
2018-05-08T18:20:20.372Z,45.70
2018-05-08T18:22:46.252Z,47.69
2018-05-08T18:25:12.578Z,44.28
2018-05-08T18:27:38.445Z,46.80
2018-05-08T18:30:04.328Z,48.44
2018-05-08T18:32:30.299Z,50.17
2018-05-08T18:34:56.190Z,49.06
2018-05-08T18:37:22.200Z,49.16
2018-05-08T18:39:48.166Z,50.08
2018-05-08T18:42:14.060Z,49.99
2018-05-08T18:44:39.922Z,50.69
2018-05-08T18:47:05.868Z,51.17
2018-05-08T18:49:31.903Z,53.20
2018-05-08T18:51:57.964Z,50.98
2018-05-08T18:54:23.887Z,52.07
2018-05-08T18:56:49.851Z,50.95
2018-05-08T18:59:15.750Z,49.55
2018-05-08T19:01:41.753Z,49.60
2018-05-08T19:04:07.649Z,48.95
2018-05-08T19:06:33.693Z,48.00
2018-05-08T19:09:01.084Z,48.63
2018-05-08T19:11:32.955Z,48.51
2018-05-08T19:13:58.930Z,50.09
2018-05-08T19:16:24.870Z,50.76
2018-05-08T19:18:56.850Z,51.66
2018-05-08T19:21:24.176Z,51.54
2018-05-08T19:23:56.292Z,53.39
2018-05-08T19:26:22.279Z,52.82
2018-05-08T19:28:54.412Z,53.43
2018-05-08T19:31:20.333Z,53.63
2018-05-08T19:33:46.222Z,56.00
2018-05-08T19:36:18.360Z,56.06
2018-05-08T19:38:44.305Z,56.70
2018-05-08T19:41:10.200Z,56.53
2018-05-08T19:43:39.884Z,56.52
2018-05-08T19:46:07.157Z,56.52
2018-05-08T19:48:34.369Z,56.70
2018-05-08T19:51:00.671Z,56.57
2018-05-08T19:53:27.124Z,57.27
2018-05-08T19:55:53.580Z,57.35
2018-05-08T19:58:19.655Z,57.82
2018-05-08T20:00:45.731Z,57.94
2018-05-08T20:03:11.774Z,60.08
2018-05-08T20:05:37.999Z,58.17
2018-05-08T20:08:03.909Z,58.80
2018-05-08T20:10:29.818Z,58.87
2018-05-08T20:12:55.732Z,58.41
2018-05-08T20:15:21.721Z,59.83
2018-05-08T20:17:47.606Z,60.16
2018-05-08T20:20:13.919Z,60.42
2018-05-08T20:22:39.789Z,61.08
2018-05-08T20:25:05.652Z,59.54
2018-05-08T20:27:32.046Z,60.96
2018-05-08T20:29:57.956Z,60.73
2018-05-08T20:32:23.891Z,61.42
2018-05-08T20:34:50.896Z,62.25
2018-05-08T20:37:16.770Z,61.44
2018-05-08T20:39:42.730Z,61.68
2018-05-08T20:42:08.677Z,61.22
2018-05-08T20:44:34.548Z,59.77
2018-05-08T20:47:00.425Z,61.69
2018-05-08T20:49:26.367Z,61.13
2018-05-08T20:51:52.376Z,61.58
2018-05-08T20:54:18.293Z,61.73
2018-05-08T20:56:44.231Z,62.12
2018-05-08T20:59:10.137Z,62.16
2018-05-08T21:01:36.049Z,62.47
2018-05-08T21:04:02.604Z,62.15
2018-05-08T21:06:28.481Z,62.93
2018-05-08T21:08:54.361Z,63.29
2018-05-08T21:11:20.283Z,63.53
2018-05-08T21:13:46.147Z,61.24
2018-05-08T21:16:12.116Z,62.07
2018-05-08T21:18:38.034Z,61.30
2018-05-08T21:21:03.944Z,59.25
2018-05-08T21:23:29.839Z,61.14
2018-05-08T21:25:56.096Z,63.14
2018-05-08T21:28:28.903Z,63.46
2018-05-08T21:31:01.028Z,60.79
2018-05-08T21:33:26.924Z,61.67
2018-05-08T21:35:52.791Z,62.36
2018-05-08T21:38:18.717Z,63.38
2018-05-08T21:40:44.679Z,61.42
2018-05-08T21:43:10.549Z,62.48
2018-05-08T21:45:36.482Z,61.99
2018-05-08T21:48:02.393Z,63.01
2018-05-08T21:50:28.255Z,63.75
2018-05-08T21:52:54.264Z,64.15
2018-05-08T21:55:20.139Z,62.62
2018-05-08T21:57:46.003Z,64.24
2018-05-08T22:00:11.941Z,63.21
2018-05-08T22:02:37.899Z,64.99
2018-05-08T22:05:03.935Z,65.15
2018-05-08T22:07:29.873Z,64.29
2018-05-08T22:09:55.756Z,66.12
2018-05-08T22:12:21.624Z,66.64
2018-05-08T22:14:47.549Z,66.45
2018-05-08T22:17:13.549Z,65.68
2018-05-08T22:19:39.442Z,66.55
2018-05-08T22:22:05.372Z,67.28
2018-05-08T22:24:31.253Z,67.09
2018-05-08T22:26:57.124Z,67.22
2018-05-08T22:29:23.170Z,67.19
2018-05-08T22:31:49.056Z,67.81
2018-05-08T22:34:14.940Z,68.14
2018-05-08T22:36:40.892Z,67.80
2018-05-08T22:39:06.806Z,68.16
2018-05-08T22:41:32.866Z,68.79
2018-05-08T22:43:58.802Z,68.02
2018-05-08T22:46:24.698Z,68.26
2018-05-08T22:48:50.624Z,68.85
2018-05-08T22:51:16.737Z,69.02
2018-05-08T22:53:42.769Z,69.49
2018-05-08T22:56:08.709Z,69.87
2018-05-08T22:58:34.634Z,69.75
2018-05-08T23:01:00.509Z,70.23
2018-05-08T23:03:26.372Z,69.99
2018-05-08T23:05:54.425Z,70.66
2018-05-08T23:08:20.309Z,69.87
2018-05-08T23:10:46.192Z,70.08
2018-05-08T23:13:12.108Z,70.17
2018-05-08T23:15:37.992Z,70.34
2018-05-08T23:18:04.085Z,70.41
2018-05-08T23:20:29.951Z,70.83
2018-05-08T23:22:55.833Z,70.65
2018-05-08T23:25:21.699Z,70.87
2018-05-08T23:27:47.603Z,70.60
2018-05-08T23:30:13.636Z,69.82
2018-05-08T23:32:39.515Z,70.84
2018-05-08T23:35:05.441Z,70.13
2018-05-08T23:37:31.330Z,70.72
2018-05-08T23:39:57.217Z,70.85
2018-05-08T23:42:24.802Z,71.19
2018-05-08T23:44:50.696Z,71.52
2018-05-08T23:47:16.564Z,70.94
2018-05-08T23:49:42.526Z,71.16
2018-05-08T23:52:08.415Z,70.96
2018-05-08T23:54:34.411Z,71.75
2018-05-08T23:57:00.329Z,71.37
2018-05-08T23:59:26.205Z,70.94
